createdAt,value
2023-03-13T00:03:30.625Z,9.30
2023-03-13T00:08:33.668Z,9.30
2023-03-13T00:13:36.167Z,9.40
2023-03-13T00:18:38.535Z,9.50
2023-03-13T00:23:41.729Z,9.50
2023-03-13T00:28:45.939Z,9.50
2023-03-13T00:33:49.536Z,9.50
2023-03-13T00:38:53.524Z,9.50
2023-03-13T00:43:55.323Z,9.50
2023-03-13T00:48:57.541Z,9.60
2023-03-13T00:54:00.640Z,9.60
2023-03-13T00:59:02.633Z,9.60
2023-03-13T01:04:06.317Z,9.60
2023-03-13T01:09:11.849Z,9.50
2023-03-13T01:14:15.441Z,9.50
2023-03-13T01:19:17.569Z,9.50
2023-03-13T01:24:20.668Z,9.50
2023-03-13T01:29:22.400Z,9.50
2023-03-13T01:34:24.094Z,9.50
2023-03-13T01:39:27.148Z,9.50
2023-03-13T01:44:28.823Z,9.60
2023-03-13T01:49:32.959Z,9.70
2023-03-13T01:54:39.109Z,9.70
2023-03-13T01:59:45.829Z,9.70
2023-03-13T02:04:50.600Z,9.60
2023-03-13T02:09:56.445Z,9.60
2023-03-13T02:15:00.380Z,9.50
2023-03-13T02:20:02.566Z,9.60
2023-03-13T02:25:11.245Z,9.50
2023-03-13T02:30:15.559Z,9.60
2023-03-13T02:35:20.069Z,9.50
2023-03-13T02:40:25.435Z,9.30
2023-03-13T02:45:28.736Z,9.10
2023-03-13T02:50:30.939Z,9.00
2023-03-13T02:55:36.754Z,9.00
2023-03-13T03:00:39.939Z,8.90
2023-03-13T03:05:42.165Z,8.90
2023-03-13T03:10:43.838Z,9.00
2023-03-13T03:15:46.865Z,9.00
2023-03-13T03:20:48.595Z,9.10
2023-03-13T03:25:50.350Z,9.10
2023-03-13T03:30:53.719Z,9.20
2023-03-13T03:35:59.674Z,9.10
2023-03-13T03:41:01.752Z,9.00
2023-03-13T03:46:05.370Z,8.80
2023-03-13T03:51:07.735Z,8.60
2023-03-13T03:56:09.561Z,8.40
2023-03-13T04:01:12.704Z,8.20
2023-03-13T04:06:14.469Z,8.10
2023-03-13T04:11:16.157Z,8.10
2023-03-13T04:16:19.367Z,8.00
2023-03-13T04:21:21.331Z,8.00
2023-03-13T04:26:23.146Z,8.10
2023-03-13T04:31:26.459Z,8.20
2023-03-13T04:36:28.241Z,8.20
2023-03-13T04:43:07.069Z,8.40
2023-03-13T04:46:55.613Z,8.50
2023-03-13T04:51:57.600Z,8.60
2023-03-13T04:56:59.627Z,8.80
2023-03-13T05:02:02.730Z,8.80
2023-03-13T05:07:04.653Z,8.90
2023-03-13T05:12:08.942Z,9.00
2023-03-13T05:17:12.327Z,9.10
2023-03-13T05:22:14.049Z,9.10
2023-03-13T05:27:15.978Z,9.10
2023-03-13T05:32:19.141Z,9.20
2023-03-13T05:37:20.882Z,9.20
2023-03-13T05:42:22.689Z,9.40
2023-03-13T05:47:25.842Z,9.30
2023-03-13T05:52:27.982Z,9.50
2023-03-13T05:57:29.746Z,9.60
2023-03-13T06:02:32.839Z,9.70
2023-03-13T06:07:34.628Z,9.70
2023-03-13T06:12:36.353Z,9.70
2023-03-13T06:17:39.997Z,9.80
2023-03-13T06:22:41.863Z,9.90
2023-03-13T06:27:43.661Z,10.00
2023-03-13T06:32:46.836Z,10.00
2023-03-13T06:37:48.610Z,10.10
2023-03-13T06:42:50.447Z,10.10
2023-03-13T06:47:53.610Z,10.20
2023-03-13T06:52:55.491Z,10.30
2023-03-13T06:57:57.322Z,10.40
2023-03-13T07:03:00.426Z,10.50
2023-03-13T07:08:02.094Z,10.80
2023-03-13T07:13:03.892Z,11.00
2023-03-13T07:18:07.110Z,11.10
2023-03-13T07:23:08.914Z,11.10
2023-03-13T07:28:10.678Z,11.20
2023-03-13T07:33:13.842Z,11.40
2023-03-13T07:38:15.513Z,11.40
2023-03-13T07:43:17.433Z,11.50
2023-03-13T07:48:21.113Z,11.50
2023-03-13T07:53:23.311Z,11.50
2023-03-13T07:58:26.970Z,11.60
2023-03-13T08:03:30.136Z,11.60
2023-03-13T08:08:32.214Z,11.70
2023-03-13T08:13:35.096Z,12.00
2023-03-13T08:18:40.107Z,12.30
2023-03-13T08:23:42.314Z,12.40
2023-03-13T08:28:44.837Z,12.50
2023-03-13T08:33:48.465Z,12.60
2023-03-13T08:38:51.143Z,12.60
2023-03-13T08:43:53.330Z,12.70
2023-03-13T08:48:56.707Z,12.80
2023-03-13T08:53:58.462Z,12.90
2023-03-13T08:59:02.000Z,12.90
2023-03-13T09:04:06.140Z,12.80
2023-03-13T09:09:08.618Z,12.80
2023-03-13T09:14:10.685Z,12.80
2023-03-13T09:19:13.850Z,12.90
2023-03-13T09:24:15.587Z,12.90
2023-03-13T09:29:17.365Z,12.80
2023-03-13T09:34:20.582Z,13.00
2023-03-13T09:39:22.319Z,13.10
2023-03-13T09:44:27.568Z,13.20
2023-03-13T09:49:31.967Z,13.30
2023-03-13T09:54:37.938Z,13.40
2023-03-13T09:59:45.389Z,13.60
2023-03-13T10:04:51.920Z,13.70
2023-03-13T10:09:53.753Z,14.20
2023-03-13T10:15:15.888Z,14.60
2023-03-13T10:20:23.993Z,14.70
2023-03-13T10:25:29.995Z,14.40
2023-03-13T10:30:33.385Z,14.30
2023-03-13T10:35:41.243Z,14.40
2023-03-13T10:40:43.060Z,14.40
2023-03-13T10:45:45.107Z,14.50
2023-03-13T10:50:50.176Z,14.80
2023-03-13T10:55:54.391Z,15.10
2023-03-13T11:01:17.507Z,15.50
2023-03-13T11:06:31.847Z,15.60
2023-03-13T11:11:44.805Z,15.60
2023-03-13T11:16:48.601Z,15.30
2023-03-13T11:22:04.167Z,15.10
2023-03-13T11:27:10.034Z,15.10
2023-03-13T11:32:22.560Z,15.40
2023-03-13T11:37:28.553Z,15.70
2023-03-13T11:42:48.895Z,15.80
2023-03-13T11:47:59.599Z,16.20
2023-03-13T11:53:20.447Z,16.60
2023-03-13T11:58:52.677Z,16.50
2023-03-13T12:03:59.587Z,16.20
2023-03-13T12:09:10.762Z,16.10
2023-03-13T12:14:16.482Z,15.80
2023-03-13T12:19:23.675Z,16.00
2023-03-13T12:24:32.705Z,16.00
2023-03-13T12:29:43.316Z,15.90
2023-03-13T12:34:55.356Z,15.80
2023-03-13T12:40:02.128Z,15.70
2023-03-13T12:45:06.617Z,15.70
2023-03-13T12:50:36.432Z,15.60
2023-03-13T12:56:05.958Z,15.60
2023-03-13T13:01:11.238Z,15.60
2023-03-13T13:06:14.806Z,15.60
2023-03-13T13:11:44.813Z,15.50
2023-03-13T13:16:49.492Z,15.40
2023-03-13T13:22:24.527Z,15.70
2023-03-13T13:27:46.433Z,16.00
2023-03-13T13:32:49.490Z,16.70
2023-03-13T13:37:51.805Z,17.80
2023-03-13T13:42:56.236Z,18.00
2023-03-13T13:48:25.392Z,17.90
2023-03-13T13:53:31.319Z,17.80
2023-03-13T13:58:37.104Z,17.90
2023-03-13T14:03:40.418Z,18.30
2023-03-13T14:08:43.216Z,18.30
2023-03-13T14:14:09.381Z,18.30
2023-03-13T14:19:23.405Z,18.20
2023-03-13T14:24:25.184Z,18.10
2023-03-13T14:29:28.665Z,18.00
2023-03-13T14:34:32.668Z,18.00
2023-03-13T14:39:42.756Z,17.90
2023-03-13T14:44:48.111Z,18.10
2023-03-13T14:49:56.857Z,18.30
2023-03-13T14:55:00.583Z,18.20
2023-03-13T15:00:30.444Z,18.00
2023-03-13T15:05:33.870Z,17.80
2023-03-13T15:10:37.239Z,17.60
2023-03-13T15:15:40.360Z,17.50
2023-03-13T15:20:42.108Z,17.60
2023-03-13T15:25:43.862Z,17.50
2023-03-13T15:31:09.058Z,17.60
2023-03-13T15:36:15.192Z,15.10
2023-03-13T15:41:20.854Z,12.30
2023-03-13T15:52:46.777Z,11.80
2023-03-13T16:03:21.747Z,11.60
2023-03-13T16:08:35.571Z,11.50
2023-03-13T16:14:09.075Z,11.40
2023-03-13T16:19:11.137Z,11.30
2023-03-13T16:24:14.448Z,11.20
2023-03-13T16:29:21.382Z,11.10
2023-03-13T16:34:23.197Z,11.10
2023-03-13T16:39:26.282Z,11.20
2023-03-13T16:44:28.341Z,11.10
2023-03-13T16:49:30.490Z,11.10
2023-03-13T16:54:33.835Z,11.10
2023-03-13T16:59:35.927Z,11.00
2023-03-13T17:04:37.733Z,11.00
2023-03-13T17:09:40.983Z,11.00
2023-03-13T18:14:35.966Z,11.00
2023-03-13T18:19:37.711Z,11.10
2023-03-13T18:24:53.499Z,11.00
2023-03-13T18:30:14.503Z,11.00
2023-03-13T18:35:28.755Z,11.00
2023-03-13T18:40:57.498Z,11.00
2023-03-13T18:51:37.478Z,11.00
2023-03-13T18:56:39.935Z,11.10
2023-03-13T19:01:42.015Z,11.10
2023-03-13T19:06:45.942Z,11.20
2023-03-13T19:11:48.845Z,11.50
2023-03-13T19:22:31.406Z,11.40
2023-03-13T19:27:37.980Z,11.40
2023-03-13T19:32:39.831Z,11.40
2023-03-13T19:49:09.558Z,10.90
2023-03-13T19:54:38.832Z,10.80
2023-03-13T19:59:40.582Z,10.70
2023-03-13T20:04:42.396Z,10.60
2023-03-13T20:09:45.493Z,10.50
2023-03-13T20:14:47.245Z,10.40
2023-03-13T20:19:49.029Z,10.20
2023-03-13T20:24:52.158Z,10.10
2023-03-13T20:29:54.015Z,10.00
2023-03-13T20:34:55.901Z,9.90
2023-03-13T20:39:59.268Z,9.80
2023-03-13T20:45:01.130Z,9.80
2023-03-13T20:50:05.274Z,9.80
2023-03-13T20:55:13.367Z,9.80
2023-03-13T21:00:15.606Z,9.70
2023-03-13T21:05:17.640Z,9.80
2023-03-13T21:10:21.104Z,9.60
2023-03-13T21:15:22.910Z,9.50
2023-03-13T21:20:25.246Z,9.50
2023-03-13T21:25:28.414Z,9.50
2023-03-13T21:30:30.201Z,9.50
2023-03-13T21:35:31.981Z,9.40
2023-03-13T21:40:35.232Z,9.50
2023-03-13T21:45:37.041Z,9.50
2023-03-13T21:50:38.829Z,9.50
2023-03-13T21:55:42.349Z,9.50
2023-03-13T22:00:45.897Z,9.50
2023-03-13T22:05:47.853Z,9.50
2023-03-13T22:10:52.745Z,9.60
2023-03-13T22:15:54.716Z,9.60
2023-03-13T22:20:58.805Z,9.60
2023-03-13T22:26:01.982Z,9.50
2023-03-13T22:31:05.904Z,9.50
2023-03-13T22:36:09.589Z,9.50
2023-03-13T22:41:16.891Z,9.60
2023-03-13T22:46:18.686Z,9.50
2023-03-13T22:51:20.582Z,9.50
2023-03-13T22:56:25.888Z,9.50
2023-03-13T23:01:28.309Z,9.50
2023-03-13T23:06:30.122Z,9.50
2023-03-13T23:11:33.869Z,9.40
2023-03-13T23:16:36.209Z,9.40
2023-03-13T23:21:37.986Z,9.50
2023-03-13T23:26:41.171Z,9.50
2023-03-13T23:31:43.000Z,9.50
2023-03-13T23:36:44.802Z,9.50
2023-03-13T23:41:48.089Z,9.50
2023-03-13T23:46:50.219Z,9.60
2023-03-13T23:51:51.934Z,9.70
2023-03-13T23:56:55.069Z,9.70
